sensor_id;sensor_type;location;lat;lon;timestamp;pressure;altitude;pressure_sealevel;temperature;humidity
40982;BME280;26708;50.304;19.028;2023-04-08T00:00:54;98507.13;;;4.05;70.83
40982;BME280;26708;50.304;19.028;2023-04-08T00:02:59;98501.94;;;4.05;70.63
40982;BME280;26708;50.304;19.028;2023-04-08T00:05:05;98508.91;;;4.07;70.74
40982;BME280;26708;50.304;19.028;2023-04-08T00:07:14;98507.97;;;4.04;70.37
40982;BME280;26708;50.304;19.028;2023-04-08T00:09:19;98515.72;;;4.02;70.54
40982;BME280;26708;50.304;19.028;2023-04-08T00:11:23;98504.44;;;4.00;70.64
40982;BME280;26708;50.304;19.028;2023-04-08T00:13:28;98508.00;;;4.05;70.18
40982;BME280;26708;50.304;19.028;2023-04-08T00:15:33;98523.59;;;4.08;70.22
40982;BME280;26708;50.304;19.028;2023-04-08T00:17:37;98513.22;;;4.07;70.21
40982;BME280;26708;50.304;19.028;2023-04-08T00:19:43;98520.38;;;4.18;70.15
40982;BME280;26708;50.304;19.028;2023-04-08T00:21:47;98495.03;;;4.04;69.83
40982;BME280;26708;50.304;19.028;2023-04-08T00:23:55;98469.69;;;3.90;69.86
40982;BME280;26708;50.304;19.028;2023-04-08T00:26:00;98523.06;;;4.23;69.77
40982;BME280;26708;50.304;19.028;2023-04-08T00:28:04;98530.03;;;4.25;69.58
40982;BME280;26708;50.304;19.028;2023-04-08T00:30:10;98517.00;;;4.22;69.66
40982;BME280;26708;50.304;19.028;2023-04-08T00:32:16;98493.41;;;4.09;69.43
40982;BME280;26708;50.304;19.028;2023-04-08T00:34:20;98530.94;;;4.29;69.51
40982;BME280;26708;50.304;19.028;2023-04-08T00:36:25;98494.16;;;4.03;69.28
40982;BME280;26708;50.304;19.028;2023-04-08T00:38:30;98533.38;;;4.21;69.20
40982;BME280;26708;50.304;19.028;2023-04-08T00:40:38;98528.16;;;4.20;69.29
40982;BME280;26708;50.304;19.028;2023-04-08T00:42:42;98532.50;;;4.21;69.20
40982;BME280;26708;50.304;19.028;2023-04-08T00:44:48;98533.28;;;4.17;69.23
40982;BME280;26708;50.304;19.028;2023-04-08T00:46:53;98522.88;;;4.15;69.06
40982;BME280;26708;50.304;19.028;2023-04-08T00:48:58;98531.56;;;4.17;68.99
40982;BME280;26708;50.304;19.028;2023-04-08T00:51:03;98532.44;;;4.18;68.66
40982;BME280;26708;50.304;19.028;2023-04-08T00:53:08;98536.81;;;4.20;68.60
40982;BME280;26708;50.304;19.028;2023-04-08T00:55:13;98538.53;;;4.20;68.52
40982;BME280;26708;50.304;19.028;2023-04-08T00:57:21;98532.41;;;4.15;68.45
40982;BME280;26708;50.304;19.028;2023-04-08T00:59:28;98537.47;;;4.12;68.56
40982;BME280;26708;50.304;19.028;2023-04-08T01:01:43;98547.63;;;4.03;68.12
40982;BME280;26708;50.304;19.028;2023-04-08T01:04:01;98543.97;;;3.93;67.60
40982;BME280;26708;50.304;19.028;2023-04-08T01:06:18;98552.56;;;3.91;67.80
40982;BME280;26708;50.304;19.028;2023-04-08T01:08:28;98517.63;;;3.73;67.88
40982;BME280;26708;50.304;19.028;2023-04-08T01:10:38;98549.97;;;3.91;68.08
40982;BME280;26708;50.304;19.028;2023-04-08T01:12:54;98547.34;;;3.90;67.51
40982;BME280;26708;50.304;19.028;2023-04-08T01:15:03;98551.63;;;3.88;67.25
40982;BME280;26708;50.304;19.028;2023-04-08T01:17:10;98547.25;;;3.87;67.22
40982;BME280;26708;50.304;19.028;2023-04-08T01:19:25;98549.91;;;3.90;67.18
40982;BME280;26708;50.304;19.028;2023-04-08T01:21:37;98479.94;;;3.48;67.46
40982;BME280;26708;50.304;19.028;2023-04-08T01:23:56;98502.75;;;3.64;67.57
40982;BME280;26708;50.304;19.028;2023-04-08T01:26:09;98550.09;;;3.97;67.52
40982;BME280;26708;50.304;19.028;2023-04-08T01:28:18;98550.03;;;3.94;67.53
40982;BME280;26708;50.304;19.028;2023-04-08T01:30:27;98549.25;;;3.98;67.58
40982;BME280;26708;50.304;19.028;2023-04-08T01:32:34;98548.34;;;3.96;67.48
40982;BME280;26708;50.304;19.028;2023-04-08T01:34:43;98555.25;;;3.96;67.61
40982;BME280;26708;50.304;19.028;2023-04-08T01:36:51;98542.16;;;3.90;67.47
40982;BME280;26708;50.304;19.028;2023-04-08T01:38:57;98556.03;;;3.93;67.54
40982;BME280;26708;50.304;19.028;2023-04-08T01:41:07;98568.19;;;3.96;67.58
40982;BME280;26708;50.304;19.028;2023-04-08T01:43:16;98514.81;;;3.64;67.32
40982;BME280;26708;50.304;19.028;2023-04-08T01:45:22;98520.00;;;3.65;66.85
40982;BME280;26708;50.304;19.028;2023-04-08T01:47:29;98566.88;;;3.77;66.93
40982;BME280;26708;50.304;19.028;2023-04-08T01:49:36;98569.47;;;3.79;67.38
40982;BME280;26708;50.304;19.028;2023-04-08T01:51:44;98569.47;;;3.77;67.26
40982;BME280;26708;50.304;19.028;2023-04-08T01:53:51;98561.72;;;3.77;67.33
40982;BME280;26708;50.304;19.028;2023-04-08T01:56:02;98551.19;;;3.71;67.05
40982;BME280;26708;50.304;19.028;2023-04-08T01:58:19;98566.78;;;3.74;66.72
40982;BME280;26708;50.304;19.028;2023-04-08T02:00:28;98539.53;;;3.53;66.79
40982;BME280;26708;50.304;19.028;2023-04-08T02:02:35;98571.84;;;3.68;66.78
40982;BME280;26708;50.304;19.028;2023-04-08T02:04:41;98580.28;;;3.61;67.00
40982;BME280;26708;50.304;19.028;2023-04-08T02:06:46;98551.34;;;3.42;66.72
40982;BME280;26708;50.304;19.028;2023-04-08T02:08:52;98578.91;;;3.41;66.40
40982;BME280;26708;50.304;19.028;2023-04-08T02:10:57;98566.25;;;3.19;66.73
40982;BME280;26708;50.304;19.028;2023-04-08T02:13:02;98520.44;;;2.81;66.77
40982;BME280;26708;50.304;19.028;2023-04-08T02:15:11;98571.97;;;3.08;66.99
40982;BME280;26708;50.304;19.028;2023-04-08T02:17:22;98584.81;;;3.05;67.28
40982;BME280;26708;50.304;19.028;2023-04-08T02:19:40;98583.91;;;3.03;67.30
40982;BME280;26708;50.304;19.028;2023-04-08T02:22:05;98559.22;;;2.83;67.63
40982;BME280;26708;50.304;19.028;2023-04-08T02:24:17;98583.75;;;2.97;67.65
40982;BME280;26708;50.304;19.028;2023-04-08T02:26:24;98583.78;;;2.98;67.76
40982;BME280;26708;50.304;19.028;2023-04-08T02:28:34;98541.75;;;2.74;67.70
40982;BME280;26708;50.304;19.028;2023-04-08T02:30:48;98588.19;;;3.02;67.87
40982;BME280;26708;50.304;19.028;2023-04-08T02:32:56;98529.66;;;2.72;67.97
40982;BME280;26708;50.304;19.028;2023-04-08T02:35:04;98553.28;;;2.85;68.16
40982;BME280;26708;50.304;19.028;2023-04-08T02:37:09;98587.59;;;3.11;68.02
40982;BME280;26708;50.304;19.028;2023-04-08T02:39:15;98554.53;;;2.99;68.04
40982;BME280;26708;50.304;19.028;2023-04-08T02:41:27;98586.03;;;3.17;68.19
40982;BME280;26708;50.304;19.028;2023-04-08T02:43:31;98585.31;;;3.23;67.93
40982;BME280;26708;50.304;19.028;2023-04-08T02:45:47;98557.84;;;2.95;67.63
40982;BME280;26708;50.304;19.028;2023-04-08T02:47:52;98594.38;;;3.07;67.88
40982;BME280;26708;50.304;19.028;2023-04-08T02:49:57;98590.00;;;3.05;67.95
40982;BME280;26708;50.304;19.028;2023-04-08T02:52:01;98597.69;;;3.02;68.16
40982;BME280;26708;50.304;19.028;2023-04-08T02:54:06;98589.03;;;3.01;68.19
40982;BME280;26708;50.304;19.028;2023-04-08T02:56:11;98598.53;;;3.02;68.00
40982;BME280;26708;50.304;19.028;2023-04-08T02:58:16;98587.06;;;2.93;68.20
40982;BME280;26708;50.304;19.028;2023-04-08T03:00:21;98584.59;;;2.96;68.23
40982;BME280;26708;50.304;19.028;2023-04-08T03:02:28;98564.28;;;2.78;68.05
40982;BME280;26708;50.304;19.028;2023-04-08T03:04:33;98580.91;;;2.88;68.06
40982;BME280;26708;50.304;19.028;2023-04-08T03:06:38;98601.88;;;2.98;68.26
40982;BME280;26708;50.304;19.028;2023-04-08T03:08:42;98607.78;;;2.94;68.05
40982;BME280;26708;50.304;19.028;2023-04-08T03:10:47;98557.00;;;2.65;68.09
40982;BME280;26708;50.304;19.028;2023-04-08T03:12:52;98577.94;;;2.74;68.33
40982;BME280;26708;50.304;19.028;2023-04-08T03:14:57;98613.72;;;2.90;68.34
40982;BME280;26708;50.304;19.028;2023-04-08T03:17:01;98600.50;;;2.80;68.27
40982;BME280;26708;50.304;19.028;2023-04-08T03:19:09;98607.59;;;2.88;68.32
40982;BME280;26708;50.304;19.028;2023-04-08T03:21:14;98604.13;;;2.86;68.45
40982;BME280;26708;50.304;19.028;2023-04-08T03:23:18;98582.00;;;2.66;68.46
40982;BME280;26708;50.304;19.028;2023-04-08T03:25:23;98606.63;;;2.83;68.27
40982;BME280;26708;50.304;19.028;2023-04-08T03:27:29;98595.88;;;2.70;68.47
40982;BME280;26708;50.304;19.028;2023-04-08T03:29:33;98574.00;;;2.57;68.28
40982;BME280;26708;50.304;19.028;2023-04-08T03:31:39;98607.16;;;2.72;68.32
40982;BME280;26708;50.304;19.028;2023-04-08T03:33:43;98605.41;;;2.71;68.30
40982;BME280;26708;50.304;19.028;2023-04-08T03:35:50;98614.16;;;2.76;68.27
40982;BME280;26708;50.304;19.028;2023-04-08T03:37:57;98619.38;;;2.77;68.32
40982;BME280;26708;50.304;19.028;2023-04-08T03:40:02;98623.63;;;2.77;68.33
40982;BME280;26708;50.304;19.028;2023-04-08T03:42:07;98614.06;;;2.73;68.16
40982;BME280;26708;50.304;19.028;2023-04-08T03:44:12;98622.84;;;2.79;68.20
40982;BME280;26708;50.304;19.028;2023-04-08T03:46:17;98580.88;;;2.57;68.10
40982;BME280;26708;50.304;19.028;2023-04-08T03:48:22;98634.09;;;2.81;68.16
40982;BME280;26708;50.304;19.028;2023-04-08T03:50:28;98633.25;;;2.81;67.97
40982;BME280;26708;50.304;19.028;2023-04-08T03:52:35;98631.53;;;2.81;68.13
40982;BME280;26708;50.304;19.028;2023-04-08T03:54:39;98628.94;;;2.81;68.14
40982;BME280;26708;50.304;19.028;2023-04-08T03:56:44;98636.75;;;2.83;68.22
40982;BME280;26708;50.304;19.028;2023-04-08T03:58:49;98579.94;;;2.55;68.24
40982;BME280;26708;50.304;19.028;2023-04-08T04:00:53;98644.69;;;2.89;68.16
40982;BME280;26708;50.304;19.028;2023-04-08T04:02:58;98639.50;;;2.89;68.08
40982;BME280;26708;50.304;19.028;2023-04-08T04:05:03;98635.13;;;2.86;68.02
40982;BME280;26708;50.304;19.028;2023-04-08T04:07:08;98643.91;;;2.91;68.14
40982;BME280;26708;50.304;19.028;2023-04-08T04:09:16;98621.16;;;2.80;67.88
40982;BME280;26708;50.304;19.028;2023-04-08T04:11:21;98645.63;;;2.92;67.88
40982;BME280;26708;50.304;19.028;2023-04-08T04:13:26;98636.00;;;2.87;67.85
40982;BME280;26708;50.304;19.028;2023-04-08T04:15:31;98645.72;;;2.95;67.87
40982;BME280;26708;50.304;19.028;2023-04-08T04:17:36;98639.56;;;2.90;67.78
40982;BME280;26708;50.304;19.028;2023-04-08T04:19:40;98643.00;;;2.91;67.66
40982;BME280;26708;50.304;19.028;2023-04-08T04:21:45;98666.50;;;2.98;67.79
40982;BME280;26708;50.304;19.028;2023-04-08T04:23:50;98659.53;;;2.97;67.51
40982;BME280;26708;50.304;19.028;2023-04-08T04:25:57;98662.13;;;2.97;67.64
40982;BME280;26708;50.304;19.028;2023-04-08T04:28:02;98665.41;;;2.92;67.75
40982;BME280;26708;50.304;19.028;2023-04-08T04:30:08;98659.22;;;2.85;67.82
40982;BME280;26708;50.304;19.028;2023-04-08T04:32:15;98669.56;;;2.85;67.92
40982;BME280;26708;50.304;19.028;2023-04-08T04:34:21;98669.59;;;2.87;67.98
40982;BME280;26708;50.304;19.028;2023-04-08T04:36:25;98600.22;;;2.43;67.86
40982;BME280;26708;50.304;19.028;2023-04-08T04:38:30;98671.34;;;2.88;67.90
40982;BME280;26708;50.304;19.028;2023-04-08T04:40:35;98665.22;;;2.84;67.99
40982;BME280;26708;50.304;19.028;2023-04-08T04:42:42;98672.31;;;2.91;67.86
40982;BME280;26708;50.304;19.028;2023-04-08T04:44:47;98634.50;;;2.65;67.70
40982;BME280;26708;50.304;19.028;2023-04-08T04:46:55;98649.25;;;2.69;67.71
40982;BME280;26708;50.304;19.028;2023-04-08T04:48:59;98610.75;;;2.49;67.65
40982;BME280;26708;50.304;19.028;2023-04-08T04:51:03;98616.56;;;2.42;67.94
40982;BME280;26708;50.304;19.028;2023-04-08T04:53:09;98683.16;;;2.80;68.13
40982;BME280;26708;50.304;19.028;2023-04-08T04:55:13;98682.34;;;2.81;68.14
40982;BME280;26708;50.304;19.028;2023-04-08T04:57:18;98688.28;;;2.78;68.06
40982;BME280;26708;50.304;19.028;2023-04-08T04:59:26;98681.44;;;2.80;68.22
40982;BME280;26708;50.304;19.028;2023-04-08T05:01:30;98690.16;;;2.84;68.10
40982;BME280;26708;50.304;19.028;2023-04-08T05:03:35;98688.66;;;2.90;68.23
40982;BME280;26708;50.304;19.028;2023-04-08T05:05:40;98693.81;;;2.90;67.98
40982;BME280;26708;50.304;19.028;2023-04-08T05:07:45;98693.13;;;2.96;68.04
40982;BME280;26708;50.304;19.028;2023-04-08T05:09:49;98693.25;;;3.00;68.00
40982;BME280;26708;50.304;19.028;2023-04-08T05:11:55;98701.25;;;3.09;67.94
40982;BME280;26708;50.304;19.028;2023-04-08T05:13:59;98633.13;;;2.78;67.69
40982;BME280;26708;50.304;19.028;2023-04-08T05:16:07;98704.09;;;3.18;67.83
40982;BME280;26708;50.304;19.028;2023-04-08T05:18:12;98700.78;;;3.22;67.90
40982;BME280;26708;50.304;19.028;2023-04-08T05:20:17;98704.34;;;3.26;67.80
40982;BME280;26708;50.304;19.028;2023-04-08T05:22:21;98703.56;;;3.30;67.76
40982;BME280;26708;50.304;19.028;2023-04-08T05:24:26;98694.97;;;3.29;67.56
40982;BME280;26708;50.304;19.028;2023-04-08T05:26:31;98710.78;;;3.41;67.60
40982;BME280;26708;50.304;19.028;2023-04-08T05:28:36;98708.31;;;3.44;67.46
40982;BME280;26708;50.304;19.028;2023-04-08T05:30:41;98712.00;;;3.54;67.55
40982;BME280;26708;50.304;19.028;2023-04-08T05:32:49;98712.88;;;3.54;67.11
40982;BME280;26708;50.304;19.028;2023-04-08T05:34:53;98722.56;;;3.61;67.29
40982;BME280;26708;50.304;19.028;2023-04-08T05:36:58;98717.63;;;3.70;67.04
40982;BME280;26708;50.304;19.028;2023-04-08T05:39:03;98722.25;;;3.82;66.65
40982;BME280;26708;50.304;19.028;2023-04-08T05:41:07;98708.75;;;3.93;66.50
40982;BME280;26708;50.304;19.028;2023-04-08T05:43:14;98729.19;;;4.15;66.02
40982;BME280;26708;50.304;19.028;2023-04-08T05:45:18;98722.44;;;4.21;65.35
40982;BME280;26708;50.304;19.028;2023-04-08T05:47:23;98722.47;;;4.23;65.03
40982;BME280;26708;50.304;19.028;2023-04-08T05:49:32;98732.84;;;4.23;65.02
40982;BME280;26708;50.304;19.028;2023-04-08T05:51:37;98728.72;;;4.32;65.10
40982;BME280;26708;50.304;19.028;2023-04-08T05:53:42;98716.72;;;4.34;64.80
40982;BME280;26708;50.304;19.028;2023-04-08T05:55:49;98733.44;;;4.47;64.12
40982;BME280;26708;50.304;19.028;2023-04-08T05:57:53;98734.53;;;4.56;64.03
40982;BME280;26708;50.304;19.028;2023-04-08T05:59:58;98733.06;;;4.67;64.12
40982;BME280;26708;50.304;19.028;2023-04-08T06:02:03;98729.81;;;4.76;63.43
40982;BME280;26708;50.304;19.028;2023-04-08T06:04:08;98734.53;;;4.92;62.87
40982;BME280;26708;50.304;19.028;2023-04-08T06:06:15;98715.25;;;4.82;62.72
40982;BME280;26708;50.304;19.028;2023-04-08T06:08:20;98733.69;;;4.93;62.52
40982;BME280;26708;50.304;19.028;2023-04-08T06:10:25;98735.47;;;4.97;62.95
40982;BME280;26708;50.304;19.028;2023-04-08T06:12:30;98748.44;;;4.95;62.30
40982;BME280;26708;50.304;19.028;2023-04-08T06:14:36;98746.66;;;4.94;62.79
40982;BME280;26708;50.304;19.028;2023-04-08T06:16:41;98752.72;;;4.95;62.65
40982;BME280;26708;50.304;19.028;2023-04-08T06:18:45;98740.50;;;4.89;62.22
40982;BME280;26708;50.304;19.028;2023-04-08T06:20:51;98746.81;;;5.00;61.96
40982;BME280;26708;50.304;19.028;2023-04-08T06:23:00;98756.75;;;5.19;61.54
40982;BME280;26708;50.304;19.028;2023-04-08T06:25:08;98708.03;;;5.06;61.08
40982;BME280;26708;50.304;19.028;2023-04-08T06:27:14;98745.75;;;5.31;60.58
40982;BME280;26708;50.304;19.028;2023-04-08T06:29:19;98768.63;;;5.50;60.41
40982;BME280;26708;50.304;19.028;2023-04-08T06:31:25;98766.94;;;5.52;59.72
40982;BME280;26708;50.304;19.028;2023-04-08T06:33:32;98722.31;;;5.26;59.79
40982;BME280;26708;50.304;19.028;2023-04-08T06:35:37;98708.38;;;5.21;59.40
40982;BME280;26708;50.304;19.028;2023-04-08T06:37:44;98771.53;;;5.65;59.67
40982;BME280;26708;50.304;19.028;2023-04-08T06:39:52;98777.63;;;5.67;59.07
40982;BME280;26708;50.304;19.028;2023-04-08T06:41:58;98778.47;;;5.66;58.98
40982;BME280;26708;50.304;19.028;2023-04-08T06:44:22;98682.97;;;5.05;59.00
40982;BME280;26708;50.304;19.028;2023-04-08T06:46:28;98778.25;;;5.55;59.30
40982;BME280;26708;50.304;19.028;2023-04-08T06:48:33;98783.53;;;5.60;59.09
40982;BME280;26708;50.304;19.028;2023-04-08T06:50:41;98780.09;;;5.61;59.49
40982;BME280;26708;50.304;19.028;2023-04-08T06:52:47;98758.13;;;5.44;59.35
40982;BME280;26708;50.304;19.028;2023-04-08T06:54:58;98703.09;;;5.17;59.60
40982;BME280;26708;50.304;19.028;2023-04-08T06:57:05;98792.56;;;5.78;59.48
40982;BME280;26708;50.304;19.028;2023-04-08T06:59:14;98785.13;;;5.95;59.79
40982;BME280;26708;50.304;19.028;2023-04-08T07:01:22;98752.38;;;6.03;58.97
40982;BME280;26708;50.304;19.028;2023-04-08T07:03:29;98701.19;;;5.99;58.30
40982;BME280;26708;50.304;19.028;2023-04-08T07:05:37;98721.53;;;6.22;57.32
40982;BME280;26708;50.304;19.028;2023-04-08T07:07:42;98781.47;;;6.82;57.51
40982;BME280;26708;50.304;19.028;2023-04-08T07:09:46;98793.84;;;6.96;55.58
40982;BME280;26708;50.304;19.028;2023-04-08T07:11:58;98797.38;;;6.98;56.08
40982;BME280;26708;50.304;19.028;2023-04-08T07:14:05;98792.28;;;7.07;55.88
40982;BME280;26708;50.304;19.028;2023-04-08T07:16:10;98755.59;;;6.91;56.17
40982;BME280;26708;50.304;19.028;2023-04-08T07:18:20;98794.25;;;7.23;55.74
40982;BME280;26708;50.304;19.028;2023-04-08T07:20:24;98752.50;;;7.16;55.63
40982;BME280;26708;50.304;19.028;2023-04-08T07:22:29;98786.03;;;7.56;54.94
40982;BME280;26708;50.304;19.028;2023-04-08T07:24:35;98801.88;;;7.74;54.22
40982;BME280;26708;50.304;19.028;2023-04-08T07:26:43;98737.41;;;7.53;53.39
40982;BME280;26708;50.304;19.028;2023-04-08T07:28:51;98795.28;;;8.01;53.15
40982;BME280;26708;50.304;19.028;2023-04-08T07:31:08;98805.78;;;8.10;52.44
40982;BME280;26708;50.304;19.028;2023-04-08T07:33:20;98814.50;;;8.10;51.86
40982;BME280;26708;50.304;19.028;2023-04-08T07:35:30;98787.16;;;7.76;51.31
40982;BME280;26708;50.304;19.028;2023-04-08T07:37:37;98823.56;;;7.71;52.72
40982;BME280;26708;50.304;19.028;2023-04-08T07:39:44;98812.06;;;7.57;52.58
40982;BME280;26708;50.304;19.028;2023-04-08T07:41:49;98804.16;;;7.48;53.46
40982;BME280;26708;50.304;19.028;2023-04-08T07:44:08;98811.13;;;7.51;53.28
40982;BME280;26708;50.304;19.028;2023-04-08T07:46:24;98819.91;;;7.59;53.65
40982;BME280;26708;50.304;19.028;2023-04-08T07:48:31;98792.94;;;7.54;53.41
40982;BME280;26708;50.304;19.028;2023-04-08T07:50:39;98790.47;;;7.63;52.45
40982;BME280;26708;50.304;19.028;2023-04-08T07:52:46;98824.50;;;7.77;52.12
40982;BME280;26708;50.304;19.028;2023-04-08T07:54:51;98818.50;;;7.84;52.70
40982;BME280;26708;50.304;19.028;2023-04-08T07:56:57;98822.94;;;7.90;51.87
40982;BME280;26708;50.304;19.028;2023-04-08T07:59:02;98815.81;;;7.77;51.14
40982;BME280;26708;50.304;19.028;2023-04-08T08:01:17;98784.16;;;7.46;51.12
40982;BME280;26708;50.304;19.028;2023-04-08T08:03:23;98801.72;;;7.62;51.85
40982;BME280;26708;50.304;19.028;2023-04-08T08:05:28;98798.19;;;7.58;51.73
40982;BME280;26708;50.304;19.028;2023-04-08T08:07:34;98807.88;;;7.67;52.00
40982;BME280;26708;50.304;19.028;2023-04-08T08:09:40;98814.91;;;7.74;51.99
40982;BME280;26708;50.304;19.028;2023-04-08T08:11:47;98787.88;;;7.63;51.74
40982;BME280;26708;50.304;19.028;2023-04-08T08:13:52;98820.34;;;7.91;52.19
40982;BME280;26708;50.304;19.028;2023-04-08T08:15:57;98821.31;;;7.99;51.25
40982;BME280;26708;50.304;19.028;2023-04-08T08:18:06;98820.53;;;8.05;51.79
40982;BME280;26708;50.304;19.028;2023-04-08T08:20:14;98830.13;;;8.10;50.99
40982;BME280;26708;50.304;19.028;2023-04-08T08:22:22;98782.03;;;7.84;50.90
40982;BME280;26708;50.304;19.028;2023-04-08T08:24:28;98745.22;;;7.56;51.13
40982;BME280;26708;50.304;19.028;2023-04-08T08:26:34;98834.41;;;8.05;51.69
40982;BME280;26708;50.304;19.028;2023-04-08T08:28:41;98826.59;;;8.05;51.28
40982;BME280;26708;50.304;19.028;2023-04-08T08:30:46;98821.19;;;7.88;51.01
40982;BME280;26708;50.304;19.028;2023-04-08T08:32:51;98823.66;;;7.80;51.21
40982;BME280;26708;50.304;19.028;2023-04-08T08:35:02;98828.94;;;7.84;51.64
40982;BME280;26708;50.304;19.028;2023-04-08T08:37:08;98833.25;;;7.82;51.84
40982;BME280;26708;50.304;19.028;2023-04-08T08:39:13;98828.97;;;7.86;51.82
40982;BME280;26708;50.304;19.028;2023-04-08T08:41:21;98830.69;;;7.85;52.65
40982;BME280;26708;50.304;19.028;2023-04-08T08:43:31;98823.84;;;7.92;52.59
40982;BME280;26708;50.304;19.028;2023-04-08T08:45:38;98825.63;;;7.97;51.79
40982;BME280;26708;50.304;19.028;2023-04-08T08:47:44;98785.31;;;7.69;51.07
40982;BME280;26708;50.304;19.028;2023-04-08T08:49:52;98836.94;;;7.98;51.79
40982;BME280;26708;50.304;19.028;2023-04-08T08:51:59;98837.84;;;8.01;51.74
40982;BME280;26708;50.304;19.028;2023-04-08T08:54:06;98834.34;;;7.98;51.54
40982;BME280;26708;50.304;19.028;2023-04-08T08:56:16;98809.66;;;7.69;51.80
40982;BME280;26708;50.304;19.028;2023-04-08T08:58:25;98793.69;;;7.47;51.86
40982;BME280;26708;50.304;19.028;2023-04-08T09:00:46;98792.72;;;7.37;51.99
40982;BME280;26708;50.304;19.028;2023-04-08T09:02:52;98857.47;;;7.76;52.33
40982;BME280;26708;50.304;19.028;2023-04-08T09:04:58;98852.06;;;7.61;52.56
40982;BME280;26708;50.304;19.028;2023-04-08T09:07:12;98873.06;;;7.73;52.60
40982;BME280;26708;50.304;19.028;2023-04-08T09:09:18;98851.16;;;7.57;52.82
40982;BME280;26708;50.304;19.028;2023-04-08T09:11:22;98875.66;;;7.71;52.60
40982;BME280;26708;50.304;19.028;2023-04-08T09:13:35;98865.19;;;7.67;52.02
40982;BME280;26708;50.304;19.028;2023-04-08T09:16:00;98872.25;;;7.75;52.09
40982;BME280;26708;50.304;19.028;2023-04-08T09:18:20;98858.22;;;7.66;52.60
40982;BME280;26708;50.304;19.028;2023-04-08T09:20:25;98871.22;;;7.63;52.95
40982;BME280;26708;50.304;19.028;2023-04-08T09:22:33;98876.38;;;7.61;52.64
40982;BME280;26708;50.304;19.028;2023-04-08T09:24:38;98840.44;;;7.36;52.43
40982;BME280;26708;50.304;19.028;2023-04-08T09:26:45;98878.03;;;7.56;52.41
40982;BME280;26708;50.304;19.028;2023-04-08T09:28:58;98868.38;;;7.48;52.26
40982;BME280;26708;50.304;19.028;2023-04-08T09:31:19;98851.69;;;7.35;52.41
40982;BME280;26708;50.304;19.028;2023-04-08T09:33:29;98884.97;;;7.54;52.32
40982;BME280;26708;50.304;19.028;2023-04-08T09:35:35;98892.81;;;7.56;51.57
40982;BME280;26708;50.304;19.028;2023-04-08T09:37:42;98837.75;;;7.30;51.77
40982;BME280;26708;50.304;19.028;2023-04-08T09:39:47;98881.69;;;7.67;52.24
40982;BME280;26708;50.304;19.028;2023-04-08T09:41:57;98827.66;;;7.53;52.21
40982;BME280;26708;50.304;19.028;2023-04-08T09:44:07;98874.13;;;7.88;51.17
40982;BME280;26708;50.304;19.028;2023-04-08T09:46:17;98888.06;;;7.88;50.35
40982;BME280;26708;50.304;19.028;2023-04-08T09:48:38;98876.78;;;7.89;51.17
40982;BME280;26708;50.304;19.028;2023-04-08T09:50:49;98876.06;;;8.01;51.12
40982;BME280;26708;50.304;19.028;2023-04-08T09:53:00;98879.69;;;8.13;51.29
40982;BME280;26708;50.304;19.028;2023-04-08T09:55:21;98870.28;;;8.26;51.11
40982;BME280;26708;50.304;19.028;2023-04-08T09:57:33;98875.69;;;8.41;50.25
40982;BME280;26708;50.304;19.028;2023-04-08T09:59:50;98872.38;;;8.57;50.29
40982;BME280;26708;50.304;19.028;2023-04-08T10:02:08;98809.56;;;8.34;48.60
40982;BME280;26708;50.304;19.028;2023-04-08T10:04:21;98870.03;;;8.79;48.33
40982;BME280;26708;50.304;19.028;2023-04-08T10:06:28;98874.44;;;8.86;48.34
40982;BME280;26708;50.304;19.028;2023-04-08T10:08:38;98873.59;;;8.93;47.59
40982;BME280;26708;50.304;19.028;2023-04-08T10:10:43;98834.31;;;8.78;47.62
40982;BME280;26708;50.304;19.028;2023-04-08T10:12:50;98868.50;;;9.05;48.67
40982;BME280;26708;50.304;19.028;2023-04-08T10:15:26;98844.97;;;9.01;49.19
40982;BME280;26708;50.304;19.028;2023-04-08T10:17:34;98886.06;;;9.26;48.98
40982;BME280;26708;50.304;19.028;2023-04-08T10:19:41;98882.59;;;9.25;49.01
40982;BME280;26708;50.304;19.028;2023-04-08T10:21:49;98878.31;;;9.36;48.84
40982;BME280;26708;50.304;19.028;2023-04-08T10:23:58;98885.38;;;9.48;48.75
40982;BME280;26708;50.304;19.028;2023-04-08T10:26:31;98885.47;;;9.61;47.42
40982;BME280;26708;50.304;19.028;2023-04-08T10:28:38;98881.09;;;9.60;46.68
40982;BME280;26708;50.304;19.028;2023-04-08T10:30:43;98863.59;;;9.52;47.28
40982;BME280;26708;50.304;19.028;2023-04-08T10:32:48;98885.50;;;9.66;47.22
40982;BME280;26708;50.304;19.028;2023-04-08T10:34:53;98845.25;;;9.40;47.46
40982;BME280;26708;50.304;19.028;2023-04-08T10:36:58;98813.81;;;9.22;46.53
40982;BME280;26708;50.304;19.028;2023-04-08T10:39:03;98880.19;;;9.57;46.40
40982;BME280;26708;50.304;19.028;2023-04-08T10:41:09;98894.94;;;9.44;46.21
40982;BME280;26708;50.304;19.028;2023-04-08T10:43:24;98880.06;;;9.34;46.87
40982;BME280;26708;50.304;19.028;2023-04-08T10:45:28;98884.28;;;9.19;46.39
40982;BME280;26708;50.304;19.028;2023-04-08T10:47:33;98884.19;;;9.08;46.93
40982;BME280;26708;50.304;19.028;2023-04-08T10:49:38;98880.69;;;9.06;47.57
40982;BME280;26708;50.304;19.028;2023-04-08T10:51:44;98885.94;;;9.09;47.82
40982;BME280;26708;50.304;19.028;2023-04-08T10:53:50;98891.22;;;9.15;47.37
40982;BME280;26708;50.304;19.028;2023-04-08T10:56:03;98892.09;;;9.16;47.01
40982;BME280;26708;50.304;19.028;2023-04-08T10:58:09;98894.75;;;9.23;47.35
40982;BME280;26708;50.304;19.028;2023-04-08T11:00:32;98879.16;;;9.31;47.52
40982;BME280;26708;50.304;19.028;2023-04-08T11:02:37;98890.56;;;9.43;47.26
40982;BME280;26708;50.304;19.028;2023-04-08T11:04:42;98884.47;;;9.41;47.33
40982;BME280;26708;50.304;19.028;2023-04-08T11:06:49;98854.75;;;9.30;47.11
40982;BME280;26708;50.304;19.028;2023-04-08T11:08:56;98893.34;;;9.66;47.53
40982;BME280;26708;50.304;19.028;2023-04-08T11:11:02;98889.94;;;9.77;47.16
40982;BME280;26708;50.304;19.028;2023-04-08T11:13:10;98883.84;;;9.78;46.70
40982;BME280;26708;50.304;19.028;2023-04-08T11:15:15;98880.41;;;9.85;47.13